Time;durP1;ratioP1;P1;durP2;ratioP2;P2;SDS_P1;SDS_P2;PMS_P1;PMS_P2;Temp;Humidity;BMP_temperature;BMP_pressure;BME280_temperature;BME280_humidity;BME280_pressure;Samples;Min_cycle;Max_cycle;Signal;HPM_P1;HPM_P2
2023/12/14 00:00:24;;;;;;;80.35;37.22;;;;;;;4.48;86.23;99015.19;3153087;28;20063;-71
2023/12/14 00:01:54;;;;;;;80.50;37.00;;;;;;;4.46;86.21;99015.25;3159733;28;20075;-71
2023/12/14 00:03:26;;;;;;;84.65;37.20;;;;;;;4.44;86.28;99014.47;3157473;28;20140;-71
2023/12/14 00:04:58;;;;;;;81.15;37.53;;;;;;;4.45;85.99;99011.00;3160513;28;20052;-70
2023/12/14 00:06:28;;;;;;;88.07;37.13;;;;;;;4.45;86.12;99008.41;3158288;28;20059;-71
2023/12/14 00:08:00;;;;;;;78.78;36.55;;;;;;;4.42;86.00;99010.25;3158053;28;20449;-71
2023/12/14 00:09:32;;;;;;;80.85;36.25;;;;;;;4.44;86.03;99003.31;3159535;28;20047;-71
2023/12/14 00:11:05;;;;;;;85.32;38.55;;;;;;;4.39;85.99;99000.88;3164141;28;20131;-71
2023/12/14 00:12:37;;;;;;;82.97;36.47;;;;;;;4.40;86.03;99012.03;3165209;28;20044;-72
2023/12/14 00:14:08;;;;;;;90.22;39.55;;;;;;;4.40;86.26;99017.19;3161776;28;20044;-72
2023/12/14 00:15:39;;;;;;;88.15;39.00;;;;;;;4.38;86.05;99006.94;3158061;28;20051;-72
2023/12/14 00:17:10;;;;;;;92.57;39.30;;;;;;;4.38;86.25;99024.13;3160328;28;20052;-71
2023/12/14 00:18:42;;;;;;;87.95;37.67;;;;;;;4.35;86.17;99025.09;3162356;28;20044;-75
2023/12/14 00:20:14;;;;;;;93.38;39.38;;;;;;;4.31;86.13;99011.44;3164549;28;20516;-79
2023/12/14 00:21:45;;;;;;;88.78;37.40;;;;;;;4.32;86.24;99014.88;3170305;28;20051;-76
2023/12/14 00:23:16;;;;;;;92.80;38.10;;;;;;;4.27;86.25;99017.59;3161682;28;20512;-76
2023/12/14 00:24:50;;;;;;;87.80;39.47;;;;;;;4.18;86.18;98986.94;3159356;28;20096;-76
2023/12/14 00:26:20;;;;;;;87.70;37.08;;;;;;;4.28;86.33;99008.94;3164774;28;20191;-79
2023/12/14 00:27:52;;;;;;;97.60;41.28;;;;;;;4.26;86.35;99010.75;3158184;28;20279;-78
2023/12/14 00:29:23;;;;;;;98.63;40.08;;;;;;;4.29;86.32;99020.13;3157890;28;20457;-74
2023/12/14 00:30:55;;;;;;;91.70;40.00;;;;;;;4.29;86.41;99012.41;3157982;28;20109;-73
2023/12/14 00:32:25;;;;;;;91.25;38.70;;;;;;;4.29;86.45;99013.22;3163811;28;20054;-73
2023/12/14 00:33:57;;;;;;;88.30;39.50;;;;;;;4.29;86.50;99020.97;3170330;28;20052;-75
2023/12/14 00:35:28;;;;;;;76.82;36.85;;;;;;;4.23;86.37;99016.00;3164449;28;20514;-77
2023/12/14 00:37:00;;;;;;;85.03;37.70;;;;;;;4.25;86.53;99019.34;3167146;28;20055;-76
2023/12/14 00:38:30;;;;;;;89.38;37.55;;;;;;;4.22;86.48;99016.88;3159734;28;20051;-76
2023/12/14 00:40:04;;;;;;;87.38;39.17;;;;;;;4.25;86.49;99031.41;3168808;28;20662;-70
2023/12/14 00:41:34;;;;;;;;;;;;;;;4.09;86.72;99019.00;3158042;28;20052;-70
2023/12/14 00:43:06;;;;;;;93.07;37.58;;;;;;;4.14;86.99;99023.16;3158071;28;19927;-70
2023/12/14 00:44:37;;;;;;;93.20;38.70;;;;;;;4.15;86.71;99022.28;3157949;28;20100;-70
2023/12/14 00:46:09;;;;;;;93.03;38.53;;;;;;;4.16;86.77;99024.81;3157773;28;20052;-70
2023/12/14 00:47:39;;;;;;;96.32;37.63;;;;;;;4.17;86.91;99025.63;3160077;28;20509;-71
2023/12/14 00:49:11;;;;;;;99.32;39.67;;;;;;;4.18;86.89;99037.66;3160051;28;20126;-71
2023/12/14 00:50:42;;;;;;;83.85;37.60;;;;;;;4.19;86.80;99029.88;3157798;28;20059;-67
2023/12/14 00:52:14;;;;;;;88.50;38.53;;;;;;;4.21;87.01;99029.81;3158396;28;20816;-68
2023/12/14 00:53:44;;;;;;;86.80;36.90;;;;;;;4.22;86.97;99034.91;3165091;28;20048;-68
2023/12/14 00:55:17;;;;;;;83.53;38.78;;;;;;;4.24;86.71;99028.00;3160966;28;20445;-68
2023/12/14 00:56:48;;;;;;;87.32;38.10;;;;;;;4.23;86.79;99028.03;3157876;28;20051;-68
2023/12/14 00:58:20;;;;;;;94.82;38.45;;;;;;;4.23;86.81;99026.31;3157479;28;20044;-68
2023/12/14 00:59:51;;;;;;;94.00;38.20;;;;;;;4.24;86.71;99020.25;3157753;28;20044;-68
2023/12/14 01:01:22;;;;;;;91.55;38.33;;;;;;;4.24;86.75;99022.84;3163232;28;20070;-68
2023/12/14 01:02:53;;;;;;;87.00;38.67;;;;;;;4.24;86.61;99015.09;3166943;28;20052;-68
2023/12/14 01:04:25;;;;;;;84.47;37.83;;;;;;;4.26;86.52;99010.75;3157628;28;20417;-68
2023/12/14 01:05:55;;;;;;;84.75;37.28;;;;;;;4.25;86.90;99005.63;3161579;28;20055;-68
2023/12/14 01:07:27;;;;;;;87.53;38.03;;;;;;;4.24;86.82;98999.63;3161144;28;20047;-68
2023/12/14 01:08:58;;;;;;;96.45;38.17;;;;;;;4.24;86.72;98988.50;3157640;28;20548;-68
2023/12/14 01:10:32;;;;;;;86.82;37.53;;;;;;;4.25;86.71;98980.69;3169079;28;20051;-68
2023/12/14 01:12:03;;;;;;;96.78;39.50;;;;;;;4.23;86.70;98979.94;3157553;28;20139;-67
2023/12/14 01:13:35;;;;;;;101.70;40.70;;;;;;;4.20;86.73;98976.59;3160910;28;20574;-67
2023/12/14 01:15:07;;;;;;;84.75;38.65;;;;;;;4.17;86.74;98980.13;3157366;28;20052;-67
2023/12/14 01:16:39;;;;;;;95.10;38.67;;;;;;;4.17;86.83;98971.53;3157694;28;20047;-68
2023/12/14 01:18:10;;;;;;;91.93;38.00;;;;;;;4.17;87.04;98964.66;3158274;28;20134;-67
2023/12/14 01:19:41;;;;;;;85.45;38.10;;;;;;;4.18;86.95;98971.50;3157300;28;20051;-68
2023/12/14 01:21:13;;;;;;;92.43;36.90;;;;;;;4.17;86.95;98974.97;3166925;28;20494;-67
2023/12/14 01:22:44;;;;;;;101.57;37.38;;;;;;;3.98;86.80;98953.25;3165717;28;20130;-67
2023/12/14 01:24:16;;;;;;;81.97;36.03;;;;;;;4.16;86.95;98985.31;3161729;28;20532;-67
2023/12/14 01:25:48;;;;;;;91.13;38.28;;;;;;;4.17;86.99;98980.13;3162340;28;20528;-67
2023/12/14 01:27:19;;;;;;;87.65;36.55;;;;;;;4.16;86.89;98967.28;3163576;28;20043;-67
2023/12/14 01:28:50;;;;;;;88.25;38.10;;;;;;;4.16;86.96;98968.13;3164025;28;20063;-67
2023/12/14 01:30:22;;;;;;;87.72;36.85;;;;;;;4.17;86.83;98980.13;3161287;28;20044;-68
2023/12/14 01:31:53;;;;;;;86.05;36.83;;;;;;;4.16;87.06;98982.75;3165481;28;20505;-68
2023/12/14 01:33:24;;;;;;;87.68;36.88;;;;;;;3.86;86.92;98932.13;3166381;28;20048;-71
2023/12/14 01:34:55;;;;;;;84.35;36.28;;;;;;;3.90;86.93;98942.34;3157615;28;20588;-72
2023/12/14 01:36:27;;;;;;;83.30;36.75;;;;;;;4.16;87.04;98970.69;3157260;28;20054;-71
2023/12/14 01:37:58;;;;;;;87.80;36.88;;;;;;;4.16;86.92;98962.97;3157113;28;20075;-71
2023/12/14 01:39:30;;;;;;;80.07;35.95;;;;;;;4.17;86.93;98980.13;3157145;28;20037;-68
2023/12/14 01:41:03;;;;;;;87.35;36.33;;;;;;;4.17;86.96;98977.56;3157361;28;20051;-67
2023/12/14 01:42:34;;;;;;;85.77;36.73;;;;;;;4.16;87.00;98972.44;3157242;28;20058;-67
2023/12/14 01:44:05;;;;;;;81.80;36.58;;;;;;;4.17;86.96;98976.69;3168402;28;20066;-67
2023/12/14 01:45:37;;;;;;;90.78;36.78;;;;;;;4.19;86.85;98972.34;3160649;28;20458;-66
2023/12/14 01:47:08;;;;;;;91.32;37.65;;;;;;;4.18;86.85;98974.06;3159356;28;20052;-67
2023/12/14 01:48:40;;;;;;;88.07;37.35;;;;;;;4.18;86.80;98979.22;3165527;28;20051;-67
2023/12/14 01:50:11;;;;;;;91.63;36.60;;;;;;;4.19;86.82;98977.47;3157174;28;20073;-67
2023/12/14 01:51:42;;;;;;;91.10;37.53;;;;;;;4.18;86.81;98979.22;3156585;28;20409;-67
2023/12/14 01:53:13;;;;;;;83.50;36.78;;;;;;;4.19;86.68;98985.22;3156892;28;20067;-67
2023/12/14 01:54:45;;;;;;;83.57;35.75;;;;;;;4.20;86.77;98974.88;3161211;28;20382;-67
2023/12/14 01:56:17;;;;;;;81.95;36.53;;;;;;;4.20;86.82;98984.31;3164388;28;20114;-67
2023/12/14 01:57:49;;;;;;;88.60;37.10;;;;;;;4.15;86.72;98978.50;3158362;28;20050;-67
2023/12/14 01:59:21;;;;;;;82.00;37.42;;;;;;;4.08;86.82;98976.09;3168708;28;20356;-68
2023/12/14 02:00:58;;;;;;;81.53;35.28;;;;;;;4.06;86.84;98982.19;3162063;28;20039;-75
2023/12/14 02:02:30;;;;;;;87.93;36.85;;;;;;;4.10;87.03;98989.75;3165695;28;20048;-75
2023/12/14 02:04:01;;;;;;;89.00;36.58;;;;;;;4.11;86.91;98970.00;3167026;28;20059;-75
2023/12/14 02:05:33;;;;;;;86.28;39.38;;;;;;;4.12;86.84;98965.69;3156991;28;20506;-74
2023/12/14 02:07:04;;;;;;;88.30;37.65;;;;;;;4.13;87.11;98973.38;3156816;28;20075;-73
2023/12/14 02:08:36;;;;;;;79.90;35.05;;;;;;;4.09;86.90;98976.94;3156939;28;20070;-73
2023/12/14 02:10:09;;;;;;;76.43;34.25;;;;;;;3.75;87.03;98908.44;3168438;28;20487;-73
2023/12/14 02:11:41;;;;;;;79.20;34.90;;;;;;;4.13;87.03;98980.25;3158276;28;20520;-73
2023/12/14 02:13:13;;;;;;;82.03;35.50;;;;;;;4.08;87.13;98977.81;3160068;28;20043;-73
2023/12/14 02:14:43;;;;;;;80.25;34.40;;;;;;;4.07;87.13;98976.97;3157931;28;20051;-73
2023/12/14 02:16:15;;;;;;;84.90;36.03;;;;;;;4.10;87.26;98973.47;3163241;28;20062;-67
2023/12/14 02:17:46;;;;;;;82.85;36.45;;;;;;;4.10;87.07;98971.72;3160353;28;20047;-68
2023/12/14 02:19:18;;;;;;;77.18;35.03;;;;;;;4.11;87.04;98970.00;3164207;28;20436;-68
2023/12/14 02:20:49;;;;;;;86.50;35.75;;;;;;;4.00;87.08;98943.75;3162879;28;20044;-68
2023/12/14 02:22:20;;;;;;;83.38;35.08;;;;;;;4.12;87.04;98973.44;3156540;28;20058;-70
2023/12/14 02:23:52;;;;;;;80.35;34.40;;;;;;;4.08;87.05;98964.94;3157683;28;20111;-68
2023/12/14 02:25:25;;;;;;;70.18;33.17;;;;;;;4.08;86.96;98964.94;3160153;28;20075;-69
2023/12/14 02:26:57;;;;;;;74.25;33.30;;;;;;;4.09;86.99;98967.47;3164205;28;20088;-68
2023/12/14 02:28:29;;;;;;;76.32;34.00;;;;;;;4.04;87.14;98960.78;3159498;28;20051;-68
2023/12/14 02:29:59;;;;;;;73.25;31.67;;;;;;;4.04;87.16;98953.88;3166977;28;20048;-68
2023/12/14 02:31:31;;;;;;;73.15;31.40;;;;;;;4.05;87.06;98971.06;3161803;28;20056;-68
2023/12/14 02:33:02;;;;;;;80.07;33.97;;;;;;;4.00;87.40;98952.31;3158133;28;20075;-68
2023/12/14 02:34:34;;;;;;;74.10;32.63;;;;;;;4.06;87.16;98953.84;3164632;28;20502;-68
2023/12/14 02:36:05;;;;;;;76.55;33.35;;;;;;;4.08;87.13;98970.97;3156648;28;20071;-67
2023/12/14 02:37:40;;;;;;;74.95;31.75;;;;;;;4.04;87.22;98966.78;3167819;28;20558;-67
2023/12/14 02:39:12;;;;;;;66.03;30.60;;;;;;;4.08;86.97;98968.38;3157794;28;20048;-67
2023/12/14 02:40:44;;;;;;;73.60;31.13;;;;;;;4.07;87.10;98964.09;3156529;28;20052;-68
2023/12/14 02:42:14;;;;;;;64.80;31.50;;;;;;;4.07;87.04;98965.84;3155829;28;20052;-70
2023/12/14 02:43:46;;;;;;;78.53;31.95;;;;;;;4.05;86.98;98959.88;3156387;28;20075;-70
2023/12/14 02:45:17;;;;;;;67.80;30.20;;;;;;;4.04;87.00;98964.19;3164241;28;20531;-71
2023/12/14 02:46:49;;;;;;;69.30;31.00;;;;;;;4.04;86.88;98968.50;3162222;28;20154;-71
2023/12/14 02:48:19;;;;;;;68.28;31.45;;;;;;;4.02;87.01;98971.16;3156623;28;20441;-70
2023/12/14 02:49:51;;;;;;;66.78;30.95;;;;;;;3.98;86.83;98955.84;3156402;28;20044;-70
2023/12/14 02:51:23;;;;;;;72.72;31.48;;;;;;;3.99;86.78;98968.66;3160596;28;20071;-70
2023/12/14 02:52:53;;;;;;;63.90;30.25;;;;;;;3.94;86.93;98967.97;3165654;28;20075;-71
2023/12/14 02:54:26;;;;;;;67.40;31.33;;;;;;;3.96;86.98;98965.31;3158437;28;20047;-69
2023/12/14 02:56:01;;;;;;;64.40;29.55;;;;;;;3.93;86.98;98957.69;3160201;28;20158;-70
2023/12/14 02:57:33;;;;;;;63.60;29.23;;;;;;;3.88;86.92;98965.59;3166803;28;20099;-69
2023/12/14 02:59:03;;;;;;;69.57;29.50;;;;;;;3.84;87.11;98959.66;3163646;28;20059;-70
2023/12/14 03:00:35;;;;;;;62.20;28.55;;;;;;;3.82;87.28;98952.91;3156378;28;20044;-70
2023/12/14 03:02:06;;;;;;;70.20;30.08;;;;;;;3.82;87.13;98952.91;3168659;28;20512;-73
2023/12/14 03:03:39;;;;;;;71.57;30.42;;;;;;;3.83;87.18;98964.88;3156846;28;20048;-71
2023/12/14 03:05:10;;;;;;;64.93;29.92;;;;;;;3.77;87.08;98975.38;3156941;28;20721;-71
2023/12/14 03:06:42;;;;;;;65.72;29.25;;;;;;;3.70;86.90;98967.00;3156336;28;20055;-71
2023/12/14 03:08:13;;;;;;;60.63;29.25;;;;;;;3.69;86.90;98951.59;3156314;28;20055;-71
2023/12/14 03:09:46;;;;;;;63.95;29.42;;;;;;;3.74;87.08;98953.13;3156277;28;20059;-71
2023/12/14 03:11:23;;;;;;;66.10;28.80;;;;;;;3.29;87.01;98898.75;3160125;28;20056;-71
2023/12/14 03:12:55;;;;;;;59.33;28.40;;;;;;;3.72;87.13;98975.50;3158368;28;20059;-70
2023/12/14 03:14:25;;;;;;;60.47;28.10;;;;;;;3.73;87.31;98961.75;3156767;28;20075;-70
2023/12/14 03:15:57;;;;;;;63.05;28.88;;;;;;;3.73;87.19;98959.19;3156027;28;20048;-70
2023/12/14 03:17:28;;;;;;;60.03;28.63;;;;;;;3.73;87.12;98958.34;3161296;28;20044;-70
2023/12/14 03:18:59;;;;;;;61.22;30.02;;;;;;;3.72;87.11;98964.38;3168950;28;20054;-69
2023/12/14 03:20:31;;;;;;;59.00;27.77;;;;;;;3.71;86.96;98971.25;3168874;28;20051;-69
2023/12/14 03:22:03;;;;;;;58.25;28.67;;;;;;;3.71;86.98;98968.69;3168049;28;20077;-70
2023/12/14 03:23:34;;;;;;;61.80;27.80;;;;;;;3.66;86.91;98952.50;3158776;28;20138;-70
2023/12/14 03:25:09;;;;;;;60.80;28.42;;;;;;;3.70;87.00;98969.56;3155984;28;20592;-71
2023/12/14 03:26:41;;;;;;;61.70;27.23;;;;;;;3.65;87.11;98963.72;3160819;28;20139;-70
2023/12/14 03:28:13;;;;;;;56.90;27.77;;;;;;;3.61;87.12;98959.56;3157869;28;20048;-72
2023/12/14 03:29:44;;;;;;;63.17;29.48;;;;;;;3.65;87.17;98963.72;3156106;28;20062;-72
2023/12/14 03:31:16;;;;;;;61.47;28.15;;;;;;;3.63;87.08;98968.06;3155794;28;20548;-71
2023/12/14 03:32:46;;;;;;;64.13;27.50;;;;;;;3.67;86.99;98973.94;3167165;28;20092;-71
2023/12/14 03:34:18;;;;;;;58.83;27.67;;;;;;;3.52;86.89;98954.66;3160791;28;20138;-71
2023/12/14 03:35:49;;;;;;;60.70;26.50;;;;;;;3.63;86.89;98973.22;3159110;28;20552;-70
2023/12/14 03:37:21;;;;;;;63.45;28.08;;;;;;;3.59;87.17;98957.00;3164795;28;20059;-71
2023/12/14 03:38:52;;;;;;;60.30;27.25;;;;;;;3.57;87.14;98963.09;3168647;28;20573;-73
2023/12/14 03:40:25;;;;;;;65.53;28.17;;;;;;;3.57;87.22;98971.66;3166803;28;20064;-72
2023/12/14 03:41:56;;;;;;;60.20;27.88;;;;;;;3.55;87.34;98977.72;3163057;28;20488;-72
2023/12/14 03:43:27;;;;;;;57.63;27.23;;;;;;;3.15;87.35;98909.44;3158652;28;20044;-73
2023/12/14 03:44:58;;;;;;;63.40;28.90;;;;;;;3.54;87.32;98976.91;3155797;28;20071;-70
2023/12/14 03:46:30;;;;;;;62.97;29.48;;;;;;;3.56;87.45;98979.44;3160098;28;20512;-72
2023/12/14 03:48:01;;;;;;;63.17;28.67;;;;;;;3.55;87.37;98976.03;3165468;28;20092;-71
2023/12/14 03:49:38;;;;;;;66.68;28.73;;;;;;;3.57;87.25;98963.09;3157741;28;20051;-71
2023/12/14 03:51:08;;;;;;;59.55;27.95;;;;;;;3.57;87.20;98956.22;3166436;28;20865;-70
2023/12/14 03:52:40;;;;;;;62.47;29.55;;;;;;;3.57;87.23;98955.38;3155856;28;20154;-70
2023/12/14 03:54:11;;;;;;;70.50;30.17;;;;;;;3.56;87.09;98953.69;3158273;28;20063;-70
2023/12/14 03:55:44;;;;;;;63.53;28.25;;;;;;;3.60;87.18;98963.00;3161006;28;20044;-73
2023/12/14 03:57:16;;;;;;;63.08;28.23;;;;;;;3.60;87.17;98961.25;3162036;28;20051;-72
2023/12/14 03:58:47;;;;;;;59.65;28.75;;;;;;;3.59;87.13;98956.19;3159283;28;20071;-73
2023/12/14 04:00:19;;;;;;;62.55;29.60;;;;;;;3.63;87.13;98961.16;3158310;28;20048;-73
2023/12/14 04:01:50;;;;;;;64.10;28.85;;;;;;;3.63;87.00;98973.22;3163750;28;20043;-72
2023/12/14 04:03:21;;;;;;;63.40;30.00;;;;;;;3.62;87.02;98958.66;3161749;28;20517;-76
2023/12/14 04:04:53;;;;;;;61.53;29.60;;;;;;;3.65;86.96;98961.13;3158363;28;20048;-76
2023/12/14 04:06:24;;;;;;;64.95;29.85;;;;;;;3.62;87.17;98948.38;3165842;28;20413;-75
2023/12/14 04:07:55;;;;;;;68.03;29.92;;;;;;;3.59;86.93;98939.00;3170694;28;20051;-75
2023/12/14 04:09:26;;;;;;;60.55;29.67;;;;;;;3.34;86.95;98896.84;3166630;28;20052;-76
2023/12/14 04:10:59;;;;;;;64.47;31.08;;;;;;;3.45;86.96;98919.72;3164907;28;20428;-75
2023/12/14 04:12:30;;;;;;;65.00;29.00;;;;;;;3.63;87.05;98945.72;3162769;28;20048;-72
2023/12/14 04:14:01;;;;;;;65.95;31.33;;;;;;;3.64;87.10;98946.59;3166088;28;20059;-73
2023/12/14 04:15:32;;;;;;;67.60;31.13;;;;;;;3.65;86.90;98943.13;3170712;28;20147;-74
2023/12/14 04:17:04;;;;;;;67.72;31.80;;;;;;;3.65;86.98;98943.13;3170618;28;20528;-73
2023/12/14 04:18:37;;;;;;;69.93;31.42;;;;;;;3.65;87.02;98953.41;3170748;28;20047;-73
2023/12/14 04:20:09;;;;;;;62.65;29.73;;;;;;;3.64;86.90;98959.47;3170508;28;20049;-73
2023/12/14 04:21:41;;;;;;;67.78;30.40;;;;;;;3.64;87.02;98946.59;3170619;28;20079;-73
2023/12/14 04:23:11;;;;;;;73.93;31.88;;;;;;;3.64;87.04;98956.88;3158274;28;20418;-72
2023/12/14 04:24:43;;;;;;;73.93;32.83;;;;;;;3.64;87.01;98967.19;3169931;28;20088;-73
2023/12/14 04:26:15;;;;;;;64.70;31.95;;;;;;;3.64;86.89;98950.00;3164051;28;20047;-73
2023/12/14 04:27:47;;;;;;;69.32;31.55;;;;;;;3.63;86.98;98956.03;3160928;28;20044;-73
2023/12/14 04:29:18;;;;;;;61.83;29.05;;;;;;;3.64;87.05;98956.88;3163713;28;20420;-73
2023/12/14 04:30:50;;;;;;;65.72;29.35;;;;;;;3.65;87.00;98954.25;3165046;28;20044;-72
2023/12/14 04:32:21;;;;;;;59.75;27.80;;;;;;;3.64;87.05;98967.19;3157981;28;20084;-73
2023/12/14 04:33:53;;;;;;;63.10;29.38;;;;;;;3.62;86.89;98967.22;3157908;28;20040;-74
2023/12/14 04:35:23;;;;;;;66.65;29.42;;;;;;;3.63;87.04;98970.63;3166364;28;20048;-72
2023/12/14 04:36:57;;;;;;;63.85;28.77;;;;;;;3.63;87.08;98970.63;3157918;28;20059;-72
2023/12/14 04:38:28;;;;;;;61.33;28.67;;;;;;;3.63;87.09;98953.44;3165697;28;20104;-72
2023/12/14 04:40:00;;;;;;;55.67;25.25;;;;;;;3.65;87.08;98966.28;3158472;28;20631;-72
2023/12/14 04:41:33;;;;;;;59.85;25.10;;;;;;;3.65;87.16;98967.13;3164426;28;20047;-70
2023/12/14 04:43:04;;;;;;;56.67;25.20;;;;;;;3.65;86.96;98963.72;3157854;28;20048;-69
2023/12/14 04:44:35;;;;;;;53.80;24.63;;;;;;;3.64;87.15;98965.44;3158010;28;20052;-74
2023/12/14 04:46:06;;;;;;;48.35;22.65;;;;;;;3.64;87.10;98964.63;3157629;28;20485;-74
2023/12/14 04:47:38;;;;;;;47.97;23.45;;;;;;;3.64;87.17;98968.03;3158050;28;20059;-72
2023/12/14 04:49:10;;;;;;;51.40;24.90;;;;;;;3.65;87.10;98976.59;3157686;28;20048;-71
2023/12/14 04:50:40;;;;;;;50.20;24.75;;;;;;;3.65;87.01;98966.28;3165892;28;20163;-67
2023/12/14 04:52:13;;;;;;;54.88;24.98;;;;;;;3.64;87.12;98954.31;3163550;28;20044;-69
2023/12/14 04:53:43;;;;;;;54.97;24.52;;;;;;;3.65;86.99;98948.28;3164544;28;20059;-67
2023/12/14 04:55:15;;;;;;;53.58;24.52;;;;;;;3.65;87.04;98953.41;3166732;28;20047;-68
2023/12/14 04:56:47;;;;;;;51.22;23.80;;;;;;;3.63;87.05;98947.47;3168021;28;20055;-68
2023/12/14 04:58:19;;;;;;;50.22;24.17;;;;;;;3.62;87.16;98945.78;3170574;28;20104;-66
2023/12/14 04:59:50;;;;;;;54.83;24.48;;;;;;;3.62;87.24;98940.63;3157587;28;20056;-67
2023/12/14 05:01:22;;;;;;;57.60;24.95;;;;;;;3.55;87.30;98934.84;3168896;28;20389;-73
2023/12/14 05:02:53;;;;;;;53.28;24.50;;;;;;;3.62;87.41;98945.78;3168585;28;20051;-73
2023/12/14 05:04:24;;;;;;;55.80;25.33;;;;;;;3.62;87.19;98948.38;3159425;28;20418;-73
2023/12/14 05:05:56;;;;;;;56.53;25.00;;;;;;;3.62;87.20;98956.91;3164290;28;20067;-70
2023/12/14 05:07:29;;;;;;;51.17;24.08;;;;;;;3.62;87.36;98956.91;3157407;28;20063;-70
2023/12/14 05:09:02;;;;;;;;;;;;;;;3.51;87.26;98958.97;3157758;28;20137;-76
2023/12/14 05:10:34;;;;;;;46.97;21.98;;;;;;;3.55;87.48;98949.41;3161083;28;19935;-77
2023/12/14 05:12:07;;;;;;;51.08;25.10;;;;;;;3.54;87.20;98940.03;3169667;28;20540;-74
2023/12/14 05:13:38;;;;;;;54.45;24.73;;;;;;;3.58;87.10;98959.63;3161589;28;20051;-70
2023/12/14 05:15:11;;;;;;;55.25;23.98;;;;;;;3.56;87.25;98957.13;3160262;28;20075;-75
2023/12/14 05:16:43;;;;;;;83.13;38.00;;;;;;;3.56;87.37;98953.69;3166730;28;20043;-71
2023/12/14 05:18:14;;;;;;;95.30;44.47;;;;;;;3.60;87.31;98948.41;3170446;28;20370;-66
2023/12/14 05:19:46;;;;;;;121.95;56.88;;;;;;;3.64;87.28;98947.44;3168388;28;20055;-74
2023/12/14 05:21:17;;;;;;;60.10;29.10;;;;;;;3.64;87.07;98949.16;3164734;28;20473;-72
2023/12/14 05:22:49;;;;;;;206.95;87.13;;;;;;;3.63;87.10;98938.00;3170207;28;20097;-76
2023/12/14 05:24:19;;;;;;;89.53;42.03;;;;;;;3.72;86.92;98952.31;3168451;28;20055;-69
2023/12/14 05:25:51;;;;;;;76.47;33.55;;;;;;;3.64;86.98;98931.16;3161979;28;20048;-76
2023/12/14 05:27:24;;;;;;;63.20;28.88;;;;;;;3.69;86.89;98920.69;3165643;28;20051;-69
2023/12/14 05:28:56;;;;;;;51.80;25.40;;;;;;;3.76;86.78;98943.63;3157268;28;20064;-69
2023/12/14 05:30:27;;;;;;;49.95;25.20;;;;;;;3.77;86.72;98952.19;3159972;28;20058;-69
2023/12/14 05:31:59;;;;;;;58.50;26.92;;;;;;;3.75;86.68;98946.25;3167683;28;20162;-67
2023/12/14 05:33:31;;;;;;;59.22;26.58;;;;;;;3.74;86.76;98947.97;3157099;28;20048;-65
2023/12/14 05:35:02;;;;;;;56.65;25.27;;;;;;;3.73;86.68;98964.34;3160992;28;20051;-64
2023/12/14 05:36:33;;;;;;;51.85;25.98;;;;;;;3.71;86.81;98963.53;3157396;28;20509;-65
2023/12/14 05:38:05;;;;;;;60.65;26.65;;;;;;;3.71;86.73;98978.97;3157194;28;20054;-66
2023/12/14 05:39:36;;;;;;;62.00;28.95;;;;;;;3.71;86.73;98975.56;3160369;28;20059;-63
2023/12/14 05:41:08;;;;;;;145.52;64.60;;;;;;;3.72;86.73;98969.50;3165526;28;20094;-63
2023/12/14 05:42:40;;;;;;;144.07;65.07;;;;;;;3.74;86.91;98966.00;3162533;28;20056;-64
2023/12/14 05:44:13;;;;;;;81.65;37.55;;;;;;;3.76;86.75;98969.38;3169992;28;20527;-65
2023/12/14 05:45:43;;;;;;;73.80;31.98;;;;;;;3.74;86.69;98965.16;3169857;28;20047;-66
2023/12/14 05:47:15;;;;;;;64.40;29.45;;;;;;;3.73;86.73;98968.66;3165626;28;20544;-66
2023/12/14 05:48:46;;;;;;;64.47;29.27;;;;;;;3.71;86.82;98971.25;3160379;28;20068;-69
2023/12/14 05:50:17;;;;;;;69.85;29.15;;;;;;;3.69;86.79;98960.16;3165697;28;20048;-69
2023/12/14 05:51:48;;;;;;;62.97;29.55;;;;;;;3.69;86.82;98967.88;3166284;28;20051;-66
2023/12/14 05:53:20;;;;;;;59.22;26.75;;;;;;;3.68;87.06;98973.09;3169143;28;20509;-66
2023/12/14 05:54:52;;;;;;;62.83;28.63;;;;;;;3.66;86.80;98975.69;3166718;28;20047;-66
2023/12/14 05:56:22;;;;;;;67.85;28.90;;;;;;;3.65;87.02;98971.44;3164543;28;20096;-64
2023/12/14 05:57:56;;;;;;;57.28;27.48;;;;;;;3.66;86.90;98978.25;3166003;28;20233;-68
2023/12/14 05:59:27;;;;;;;61.45;26.80;;;;;;;3.64;86.81;98980.91;3155625;28;20056;-67
2023/12/14 06:01:04;;;;;;;56.00;26.92;;;;;;;3.65;86.92;98974.00;3165808;28;20044;-64
2023/12/14 06:02:37;;;;;;;57.53;27.70;;;;;;;3.63;86.89;98968.91;3162147;28;20101;-67
2023/12/14 06:04:10;;;;;;;68.25;30.73;;;;;;;3.61;86.77;98973.28;3164914;28;20082;-65
2023/12/14 06:05:42;;;;;;;63.17;29.75;;;;;;;3.48;86.94;98955.66;3167889;28;20592;-64
2023/12/14 06:07:16;;;;;;;61.78;28.92;;;;;;;3.63;86.88;98974.03;3168244;28;20043;-65
2023/12/14 06:08:52;;;;;;;64.78;28.50;;;;;;;3.63;86.82;98988.66;3157288;28;20059;-65
2023/12/14 06:10:22;;;;;;;62.38;29.15;;;;;;;3.62;86.90;98992.13;3160702;28;20059;-66
2023/12/14 06:11:54;;;;;;;58.20;28.10;;;;;;;3.61;86.88;98975.84;3156407;28;20087;-65
2023/12/14 06:13:26;;;;;;;58.78;28.85;;;;;;;3.62;86.85;98987.81;3163482;28;20051;-65
2023/12/14 06:14:58;;;;;;;61.75;29.20;;;;;;;3.61;86.99;98980.16;3168863;28;20086;-66
2023/12/14 06:16:29;;;;;;;58.03;26.83;;;;;;;3.60;87.08;98983.59;3163139;28;20444;-66
2023/12/14 06:18:01;;;;;;;58.80;29.33;;;;;;;3.58;87.13;98983.66;3161061;28;20051;-65
2023/12/14 06:19:32;;;;;;;67.43;28.83;;;;;;;3.61;87.15;98986.16;3165377;28;20121;-66
2023/12/14 06:21:07;;;;;;;69.80;32.63;;;;;;;3.62;87.07;98984.41;3159669;28;20048;-65
2023/12/14 06:22:38;;;;;;;67.43;30.83;;;;;;;3.63;87.09;98970.63;3169443;28;20051;-65
2023/12/14 06:24:10;;;;;;;64.80;29.45;;;;;;;3.66;87.25;98973.13;3169241;28;20629;-65
2023/12/14 06:25:41;;;;;;;66.32;29.60;;;;;;;3.68;87.22;98975.66;3164780;28;20051;-65
2023/12/14 06:27:13;;;;;;;58.95;29.10;;;;;;;3.69;86.99;98988.47;3167705;28;20043;-64
2023/12/14 06:28:49;;;;;;;68.57;31.15;;;;;;;3.71;86.98;98989.28;3156344;28;20492;-64
2023/12/14 06:30:21;;;;;;;65.95;29.52;;;;;;;3.73;87.10;98981.53;3156260;28;20506;-64
2023/12/14 06:31:52;;;;;;;68.18;31.58;;;;;;;3.75;87.12;98980.56;3156327;28;20121;-64
2023/12/14 06:33:23;;;;;;;74.03;33.15;;;;;;;3.76;86.96;98977.13;3156526;28;20044;-65
2023/12/14 06:34:57;;;;;;;70.85;30.95;;;;;;;3.78;87.04;98982.19;3156294;28;20105;-65
2023/12/14 06:36:29;;;;;;;;;;;;;;;3.66;87.02;98993.72;3167229;28;20435;-65
2023/12/14 06:38:00;;;;;;;75.53;30.55;;;;;;;3.71;87.13;98998.75;3169040;28;20011;-66
2023/12/14 06:39:32;;;;;;;68.90;30.23;;;;;;;3.74;87.15;98996.91;3164274;28;20066;-66
2023/12/14 06:41:03;;;;;;;75.63;30.25;;;;;;;3.78;86.93;99001.06;3156048;28;20127;-65
2023/12/14 06:42:35;;;;;;;66.22;31.15;;;;;;;3.79;86.91;98991.63;3164397;28;20046;-66
2023/12/14 06:44:09;;;;;;;58.35;27.67;;;;;;;3.83;86.92;98998.38;3166514;28;20047;-66
2023/12/14 06:45:40;;;;;;;;;;;;;;;3.73;87.01;98994.41;3167313;28;20059;-65
2023/12/14 06:47:11;;;;;;;65.57;28.52;;;;;;;3.78;87.20;98993.34;3156088;28;19919;-65
2023/12/14 06:48:43;;;;;;;63.53;27.60;;;;;;;3.83;87.07;98996.63;3156188;28;20051;-65
2023/12/14 06:50:14;;;;;;;60.33;27.58;;;;;;;3.87;87.04;98997.38;3156157;28;20121;-65
2023/12/14 06:51:46;;;;;;;63.00;26.17;;;;;;;3.91;86.97;98993.00;3156592;28;20514;-65
2023/12/14 06:53:17;;;;;;;56.80;26.10;;;;;;;3.88;86.92;98981.03;3164315;28;20128;-65
2023/12/14 06:54:49;;;;;;;57.75;26.65;;;;;;;3.96;86.86;98996.25;3168746;28;20135;-66
2023/12/14 06:56:20;;;;;;;57.97;26.40;;;;;;;3.98;86.67;98986.75;3162631;28;20098;-66
2023/12/14 06:57:51;;;;;;;55.15;25.75;;;;;;;4.02;86.72;98998.63;3158827;28;20055;-65
2023/12/14 06:59:24;;;;;;;51.45;25.08;;;;;;;4.04;86.77;99000.25;3163945;28;20056;-65
2023/12/14 07:00:56;;;;;;;52.17;24.98;;;;;;;4.05;86.67;98998.53;3162837;28;20056;-65
2023/12/14 07:02:27;;;;;;;52.92;24.85;;;;;;;4.06;86.59;98983.03;3168923;28;20044;-66
2023/12/14 07:03:59;;;;;;;55.63;24.67;;;;;;;4.09;86.65;98988.09;3168221;28;20477;-67
2023/12/14 07:05:30;;;;;;;55.10;23.90;;;;;;;4.09;86.64;98975.22;3156163;28;20135;-67
2023/12/14 07:07:02;;;;;;;51.22;23.35;;;;;;;4.16;86.76;98978.41;3169098;28;20051;-67